createdAt,value
2018-09-13T00:00:53.976Z,101331.37
2018-09-13T00:03:17.856Z,101333.97
2018-09-13T00:05:41.692Z,101332.28
2018-09-13T00:08:05.577Z,101331.65
2018-09-13T00:10:29.404Z,101337.63
2018-09-13T00:12:53.286Z,101330.17
2018-09-13T00:15:17.160Z,101319.80
2018-09-13T00:17:40.963Z,101322.62
2018-09-13T00:20:04.836Z,101320.60
2018-09-13T00:22:28.736Z,101315.47
2018-09-13T00:24:52.590Z,101315.29
2018-09-13T00:27:16.438Z,101308.88
2018-09-13T00:29:40.294Z,101310.09
2018-09-13T00:32:04.148Z,101313.71
2018-09-13T00:34:27.981Z,101314.81
2018-09-13T00:36:51.841Z,101323.19
2018-09-13T00:39:15.687Z,101313.06
2018-09-13T00:41:39.964Z,101315.05
2018-09-13T00:44:03.803Z,101312.13
2018-09-13T00:46:27.662Z,101319.36
2018-09-13T00:48:51.504Z,101325.79
2018-09-13T00:51:15.359Z,101315.72
2018-09-13T00:53:39.218Z,101311.84
2018-09-13T00:56:03.093Z,101313.46
2018-09-13T00:58:26.961Z,101302.39
2018-09-13T01:00:50.811Z,101312.23
2018-09-13T01:03:14.661Z,101308.16
2018-09-13T01:05:38.539Z,101309.05
2018-09-13T01:08:02.365Z,101306.80
2018-09-13T01:10:26.229Z,101302.13
2018-09-13T01:12:50.035Z,101304.90
2018-09-13T01:15:13.900Z,101303.18
2018-09-13T01:17:37.732Z,101301.30
2018-09-13T01:20:01.614Z,101296.67
2018-09-13T01:22:25.496Z,101296.66
2018-09-13T01:24:53.537Z,101293.30
2018-09-13T01:27:17.385Z,101285.89
2018-09-13T01:29:41.223Z,101286.83
2018-09-13T01:32:05.114Z,101288.56
2018-09-13T01:34:28.941Z,101285.25
2018-09-13T01:36:52.791Z,101289.69
2018-09-13T01:39:16.665Z,101288.19
2018-09-13T01:41:40.625Z,101283.97
2018-09-13T01:44:04.460Z,101287.28
2018-09-13T01:46:28.316Z,101293.30
2018-09-13T01:48:52.257Z,101299.70
2018-09-13T01:51:16.092Z,101294.11
2018-09-13T01:53:39.947Z,101293.19
2018-09-13T01:56:03.835Z,101291.78
2018-09-13T01:58:27.690Z,101287.55
2018-09-13T02:00:51.536Z,101282.19
2018-09-13T02:03:15.362Z,101280.66
2018-09-13T02:05:39.246Z,101279.58
2018-09-13T02:08:03.120Z,101271.53
2018-09-13T02:10:26.990Z,101277.39
2018-09-13T02:12:50.812Z,101280.35
2018-09-13T02:15:14.749Z,101288.14
2018-09-13T02:17:38.588Z,101282.83
2018-09-13T02:20:02.433Z,101280.77
2018-09-13T02:22:26.732Z,101280.03
2018-09-13T02:24:51.092Z,101275.64
2018-09-13T02:27:15.136Z,101281.75
2018-09-13T02:29:39.012Z,101284.66
2018-09-13T02:32:02.909Z,101284.54
2018-09-13T02:34:26.785Z,101288.86
2018-09-13T02:36:51.568Z,101282.65
2018-09-13T02:39:15.503Z,101289.58
2018-09-13T02:41:39.457Z,101285.63
2018-09-13T02:44:03.401Z,101291.41
2018-09-13T02:46:27.198Z,101289.66
2018-09-13T02:48:51.047Z,101292.64
2018-09-13T02:51:14.902Z,101290.87
2018-09-13T02:53:38.743Z,101284.98
2018-09-13T02:56:02.594Z,101287.34
2018-09-13T02:58:26.421Z,101285.27
2018-09-13T03:00:50.419Z,101285.95
2018-09-13T03:03:14.364Z,101284.54
2018-09-13T03:05:38.255Z,101282.84
2018-09-13T03:08:02.114Z,101278.65
2018-09-13T03:10:25.946Z,101278.08
2018-09-13T03:12:49.850Z,101276.42
2018-09-13T03:15:13.675Z,101280.82
2018-09-13T03:17:37.513Z,101275.20
2018-09-13T03:20:01.414Z,101272.23
2018-09-13T03:22:25.273Z,101277.28
2018-09-13T03:24:49.107Z,101277.41
2018-09-13T03:27:12.921Z,101273.81
2018-09-13T03:29:36.790Z,101265.99
2018-09-13T03:32:00.611Z,101261.66
2018-09-13T03:34:24.498Z,101259.73
2018-09-13T03:36:48.376Z,101261.13
2018-09-13T03:39:13.207Z,101251.31
2018-09-13T03:41:37.103Z,101256.30
2018-09-13T03:44:01.112Z,101261.13
2018-09-13T03:46:24.982Z,101261.13
2018-09-13T03:48:48.848Z,101256.91
2018-09-13T03:51:12.655Z,101252.20
2018-09-13T03:53:36.510Z,101248.68
2018-09-13T03:56:00.351Z,101248.39
2018-09-13T03:58:24.209Z,101261.45
2018-09-13T04:00:48.080Z,101258.39
2018-09-13T04:03:11.922Z,101264.17
2018-09-13T04:05:35.785Z,101265.75
2018-09-13T04:07:59.646Z,101267.20
2018-09-13T04:10:23.549Z,101274.05
2018-09-13T04:12:48.046Z,101271.23
2018-09-13T04:15:11.890Z,101277.16
2018-09-13T04:17:35.769Z,101277.83
2018-09-13T04:19:59.647Z,101280.87
2018-09-13T04:22:23.511Z,101283.80
2018-09-13T04:24:47.514Z,101283.97
2018-09-13T04:27:11.856Z,101287.44
2018-09-13T04:29:35.677Z,101288.00
2018-09-13T04:31:59.491Z,101292.56
2018-09-13T04:34:23.326Z,101288.00
2018-09-13T04:36:47.169Z,101289.58
2018-09-13T04:39:11.019Z,101291.16
2018-09-13T04:41:34.869Z,101283.45
2018-09-13T04:43:58.707Z,101282.14
2018-09-13T04:46:22.557Z,101282.74
2018-09-13T04:48:46.426Z,101282.45
2018-09-13T04:51:10.291Z,101280.33
2018-09-13T04:53:34.123Z,101276.30
2018-09-13T04:55:57.986Z,101275.34
2018-09-13T04:58:21.822Z,101276.05
2018-09-13T05:00:45.712Z,101277.39
2018-09-13T05:03:09.543Z,101271.43
2018-09-13T05:05:33.399Z,101252.28
2018-09-13T05:07:57.439Z,101273.69
2018-09-13T05:10:21.294Z,101277.06
2018-09-13T05:12:45.144Z,101269.19
2018-09-13T05:15:08.959Z,101276.84
2018-09-13T05:17:32.808Z,101276.16
2018-09-13T05:19:56.641Z,101277.70
2018-09-13T05:22:20.530Z,101280.33
2018-09-13T05:24:44.378Z,101275.50
2018-09-13T05:27:08.232Z,101269.77
2018-09-13T05:29:32.189Z,101273.94
2018-09-13T05:31:56.039Z,101271.94
2018-09-13T05:34:19.944Z,101275.56
2018-09-13T05:36:43.801Z,101272.33
2018-09-13T05:39:11.024Z,101269.66
2018-09-13T05:41:34.966Z,101269.65
2018-09-13T05:43:58.818Z,101267.94
2018-09-13T05:46:22.676Z,101261.36
2018-09-13T05:48:46.512Z,101263.38
2018-09-13T05:51:10.402Z,101259.05
2018-09-13T05:53:34.410Z,101259.30
2018-09-13T05:55:58.290Z,101258.91
2018-09-13T05:58:22.144Z,101262.10
2018-09-13T06:00:46.094Z,101257.56
2018-09-13T06:03:09.918Z,101255.58
2018-09-13T06:05:33.737Z,101260.72
2018-09-13T06:07:57.600Z,101266.48
2018-09-13T06:10:21.419Z,101265.44
2018-09-13T06:12:45.362Z,101266.70
2018-09-13T06:15:09.365Z,101275.50
2018-09-13T06:17:33.170Z,101269.28
2018-09-13T06:19:57.067Z,101272.75
2018-09-13T06:22:20.946Z,101270.61
2018-09-13T06:24:44.815Z,101273.50
2018-09-13T06:27:08.660Z,101273.07
2018-09-13T06:29:32.679Z,101266.86
2018-09-13T06:31:56.457Z,101275.33
2018-09-13T06:34:20.263Z,101277.66
2018-09-13T06:36:44.169Z,101275.63
2018-09-13T06:39:08.971Z,101278.45
2018-09-13T06:41:32.826Z,101274.37
2018-09-13T06:43:56.703Z,101277.05
2018-09-13T06:46:20.590Z,101276.59
2018-09-13T06:48:45.068Z,101276.73
2018-09-13T06:51:09.027Z,101278.53
2018-09-13T06:53:32.883Z,101279.98
2018-09-13T06:55:56.723Z,101280.41
2018-09-13T06:58:20.606Z,101287.66
2018-09-13T07:00:44.468Z,101285.16
2018-09-13T07:03:08.308Z,101278.41
2018-09-13T07:05:32.160Z,101284.99
2018-09-13T07:07:56.047Z,101278.19
2018-09-13T07:10:19.987Z,101279.98
2018-09-13T07:12:43.867Z,101277.92
2018-09-13T07:15:07.682Z,101280.66
2018-09-13T07:17:31.541Z,101280.66
2018-09-13T07:19:55.417Z,101278.55
2018-09-13T07:22:19.279Z,101286.84
2018-09-13T07:24:43.095Z,101288.91
2018-09-13T07:27:07.051Z,101285.78
2018-09-13T07:29:30.890Z,101288.56
2018-09-13T07:31:54.761Z,101286.07
2018-09-13T07:34:18.613Z,101292.96
2018-09-13T07:36:42.681Z,101290.46
2018-09-13T07:39:09.152Z,101290.63
2018-09-13T07:41:32.972Z,101283.47
2018-09-13T07:43:56.823Z,101257.99
2018-09-13T07:46:20.655Z,101287.47
2018-09-13T07:48:44.605Z,101280.92
2018-09-13T07:51:08.454Z,101281.25
2018-09-13T07:53:32.317Z,101283.47
2018-09-13T07:55:56.183Z,101284.59
2018-09-13T07:58:20.040Z,101287.41
2018-09-13T08:00:43.911Z,101285.70
2018-09-13T08:03:07.763Z,101293.36
2018-09-13T08:05:31.713Z,101282.44
2018-09-13T08:07:55.562Z,101279.62
2018-09-13T08:10:19.418Z,101277.23
2018-09-13T08:12:43.288Z,101281.68
2018-09-13T08:15:07.156Z,101280.02
2018-09-13T08:17:31.050Z,101287.27
2018-09-13T08:19:54.894Z,101286.91
2018-09-13T08:22:18.794Z,101287.48
2018-09-13T08:24:42.631Z,101287.16
2018-09-13T08:27:06.610Z,101291.81
2018-09-13T08:29:30.474Z,101287.38
2018-09-13T08:31:54.311Z,101284.95
2018-09-13T08:34:18.147Z,101285.84
2018-09-13T08:36:42.024Z,101283.89
2018-09-13T08:39:09.625Z,101281.94
2018-09-13T08:41:33.470Z,101289.29
2018-09-13T08:43:57.339Z,101290.27
2018-09-13T08:46:21.647Z,101294.77
2018-09-13T08:48:45.503Z,101294.23
2018-09-13T08:51:09.381Z,101291.67
2018-09-13T08:53:33.227Z,101290.08
2018-09-13T08:55:57.091Z,101298.66
2018-09-13T08:58:20.945Z,101297.47
2018-09-13T09:00:44.912Z,101297.55
2018-09-13T09:03:08.766Z,101291.42
2018-09-13T09:05:32.625Z,101289.90
2018-09-13T09:07:56.474Z,101294.72
2018-09-13T09:10:20.381Z,101293.17
2018-09-13T09:12:44.252Z,101302.10
2018-09-13T09:15:08.153Z,101301.78
2018-09-13T09:17:32.046Z,101300.50
2018-09-13T09:19:56.294Z,101303.63
2018-09-13T09:22:20.205Z,101305.53
2018-09-13T09:24:44.051Z,101304.80
2018-09-13T09:27:07.994Z,101309.58
2018-09-13T09:29:31.860Z,101297.70
2018-09-13T09:31:55.870Z,101298.63
2018-09-13T09:34:19.719Z,101300.53
2018-09-13T09:36:43.683Z,101300.67
2018-09-13T09:39:09.794Z,101295.98
2018-09-13T09:41:33.632Z,101298.33
2018-09-13T09:43:57.532Z,101303.34
2018-09-13T09:46:21.432Z,101297.67
2018-09-13T09:48:45.284Z,101298.52
2018-09-13T09:51:09.290Z,101304.56
2018-09-13T09:53:33.160Z,101306.71
2018-09-13T09:55:57.003Z,101300.93
2018-09-13T09:58:20.900Z,101306.45
2018-09-13T10:00:50.014Z,101303.97
2018-09-13T10:03:13.969Z,101293.75
2018-09-13T10:05:37.884Z,101287.43
2018-09-13T10:08:01.720Z,101289.95
2018-09-13T10:10:25.589Z,101287.80
2018-09-13T10:12:49.452Z,101283.57
2018-09-13T10:15:18.547Z,101291.31
2018-09-13T10:17:47.768Z,101286.51
2018-09-13T10:20:16.938Z,101283.88
2018-09-13T10:22:46.230Z,101276.58
2018-09-13T10:25:15.311Z,101269.11
2018-09-13T10:27:44.504Z,101270.84
2018-09-13T10:30:13.708Z,101270.09
2018-09-13T10:32:43.023Z,101266.70
2018-09-13T10:35:12.157Z,101268.52
2018-09-13T10:37:41.328Z,101274.26
2018-09-13T10:40:10.594Z,101277.23
2018-09-13T10:42:39.685Z,101276.09
2018-09-13T10:45:08.925Z,101269.01
2018-09-13T10:47:42.163Z,101277.69
2018-09-13T10:50:07.415Z,101265.24
2018-09-13T10:52:35.224Z,101265.24
2018-09-13T10:54:59.023Z,101265.55
2018-09-13T10:57:28.146Z,101264.63
2018-09-13T10:59:52.011Z,101259.78
2018-09-13T11:02:15.895Z,101259.16
2018-09-13T11:04:40.066Z,101261.64
2018-09-13T11:07:03.917Z,101261.48
2018-09-13T11:09:27.785Z,101256.05
2018-09-13T11:11:51.650Z,101264.48
2018-09-13T11:14:22.669Z,101263.86
2018-09-13T11:16:46.550Z,101265.59
2018-09-13T11:19:10.570Z,101267.66
2018-09-13T11:21:34.468Z,101273.63
2018-09-13T11:23:58.339Z,101272.58
2018-09-13T11:26:22.243Z,101273.78
2018-09-13T11:28:46.135Z,101271.66
2018-09-13T11:31:10.146Z,101269.55
2018-09-13T11:33:34.914Z,101265.05
2018-09-13T11:35:58.916Z,101265.19
2018-09-13T11:38:22.853Z,101267.73
2018-09-13T11:40:46.955Z,101266.52
2018-09-13T11:43:10.908Z,101266.73
2018-09-13T11:45:34.680Z,101269.62
2018-09-13T11:47:58.635Z,101257.77
2018-09-13T11:50:22.475Z,101257.23
2018-09-13T11:52:46.351Z,101256.42
2018-09-13T11:55:10.212Z,101256.23
2018-09-13T11:57:34.101Z,101258.59
2018-09-13T11:59:58.000Z,101257.09
2018-09-13T12:02:21.911Z,101256.02
2018-09-13T12:04:45.807Z,101254.42
2018-09-13T12:07:09.809Z,101253.36
2018-09-13T12:09:33.728Z,101255.66
2018-09-13T12:11:57.605Z,101252.44
2018-09-13T12:14:21.459Z,101249.06
2018-09-13T12:16:45.331Z,101249.48
2018-09-13T12:19:09.282Z,101255.62
2018-09-13T12:21:33.110Z,101248.92
2018-09-13T12:23:57.100Z,101248.14
2018-09-13T12:26:20.931Z,101245.00
2018-09-13T12:28:44.830Z,101246.16
2018-09-13T12:31:08.731Z,101247.34
2018-09-13T12:33:32.618Z,101247.78
2018-09-13T12:35:56.814Z,101241.23
2018-09-13T12:38:20.693Z,101242.09
2018-09-13T12:40:44.567Z,101239.84
2018-09-13T12:43:08.475Z,101243.50
2018-09-13T12:45:32.379Z,101237.94
2018-09-13T12:47:56.234Z,101236.75
2018-09-13T12:50:20.127Z,101238.64
2018-09-13T12:52:44.087Z,101230.44
2018-09-13T12:55:07.946Z,101233.16
2018-09-13T12:57:31.804Z,101236.16
2018-09-13T12:59:55.736Z,101239.09
2018-09-13T13:02:19.602Z,101239.18
2018-09-13T13:04:43.471Z,101244.59
2018-09-13T13:07:07.318Z,101230.98
2018-09-13T13:09:31.184Z,101231.70
2018-09-13T13:11:55.197Z,101228.02
2018-09-13T13:14:19.136Z,101219.22
2018-09-13T13:16:43.079Z,101221.92
2018-09-13T13:19:06.888Z,101217.72
2018-09-13T13:21:30.869Z,101213.47
2018-09-13T13:23:54.756Z,101220.27
2018-09-13T13:26:18.644Z,101214.11
2018-09-13T13:28:42.494Z,101212.91
2018-09-13T13:31:06.369Z,101205.48
2018-09-13T13:33:30.272Z,101200.52
2018-09-13T13:35:54.123Z,101203.63
2018-09-13T13:38:17.956Z,101208.11
2018-09-13T13:40:41.877Z,101203.28
2018-09-13T13:43:05.713Z,101195.58
2018-09-13T13:45:29.590Z,101206.95
2018-09-13T13:47:53.484Z,101197.73
2018-09-13T13:50:17.381Z,101196.67
2018-09-13T13:52:41.545Z,101187.89
2018-09-13T13:55:05.412Z,101181.62
2018-09-13T13:57:29.299Z,101182.14
2018-09-13T13:59:53.163Z,101180.80
2018-09-13T14:02:17.124Z,101176.73
2018-09-13T14:04:41.006Z,101181.63
2018-09-13T14:07:04.976Z,101178.42
2018-09-13T14:09:28.834Z,101176.44
2018-09-13T14:11:52.696Z,101172.49
2018-09-13T14:14:16.551Z,101177.28
2018-09-13T14:16:40.420Z,101175.59
2018-09-13T14:19:04.305Z,101166.06
2018-09-13T14:21:28.166Z,101166.45
2018-09-13T14:23:52.239Z,101168.67
2018-09-13T14:26:16.089Z,101160.42
2018-09-13T14:28:39.937Z,101164.67
2018-09-13T14:31:03.818Z,101161.72
2018-09-13T14:33:27.660Z,101162.66
2018-09-13T14:35:51.522Z,101163.25
2018-09-13T14:38:15.408Z,101159.64
2018-09-13T14:40:39.255Z,101163.67
2018-09-13T14:43:03.146Z,101159.63
2018-09-13T14:45:26.998Z,101160.41
2018-09-13T14:47:50.881Z,101161.44
2018-09-13T14:50:14.741Z,101160.88
2018-09-13T14:52:38.674Z,101164.28
2018-09-13T14:55:02.515Z,101152.03
2018-09-13T14:57:26.357Z,101153.28
2018-09-13T14:59:50.257Z,101162.17
2018-09-13T15:02:14.112Z,101155.72
2018-09-13T15:04:38.066Z,101160.07
2018-09-13T15:07:02.019Z,101152.63
2018-09-13T15:09:25.886Z,101159.44
2018-09-13T15:11:49.755Z,101157.95
2018-09-13T15:14:13.653Z,101154.70
2018-09-13T15:16:37.499Z,101154.46
2018-09-13T15:19:01.457Z,101149.85
2018-09-13T15:21:25.344Z,101151.90
2018-09-13T15:23:49.235Z,101155.44
2018-09-13T15:26:13.164Z,101155.22
2018-09-13T15:28:37.039Z,101154.73
2018-09-13T15:31:00.954Z,101142.09
2018-09-13T15:33:24.823Z,101144.20
2018-09-13T15:35:48.691Z,101144.16
2018-09-13T15:38:12.559Z,101147.32
2018-09-13T15:40:36.381Z,101148.45
2018-09-13T15:43:00.263Z,101138.01
2018-09-13T15:45:24.102Z,101141.45
2018-09-13T15:47:47.993Z,101141.58
2018-09-13T15:50:11.861Z,101148.41
2018-09-13T15:52:35.740Z,101145.40
2018-09-13T15:54:59.616Z,101146.34
2018-09-13T15:57:23.497Z,101140.07
2018-09-13T15:59:47.402Z,101140.98
2018-09-13T16:02:11.308Z,101142.78
2018-09-13T16:04:35.199Z,101145.66
2018-09-13T16:06:59.118Z,101141.72
2018-09-13T16:09:23.008Z,101139.96
2018-09-13T16:11:47.029Z,101138.53
2018-09-13T16:14:10.945Z,101147.17
2018-09-13T16:16:35.237Z,101147.11
2018-09-13T16:18:59.147Z,101146.31
2018-09-13T16:21:23.027Z,101146.05
2018-09-13T16:23:46.976Z,101140.06
2018-09-13T16:26:10.933Z,101138.31
2018-09-13T16:28:34.717Z,101134.14
2018-09-13T16:30:58.620Z,101132.31
2018-09-13T16:33:22.491Z,101127.95
2018-09-13T16:35:49.889Z,101127.73
2018-09-13T16:38:19.380Z,101125.63
2018-09-13T16:40:48.598Z,101117.45
2018-09-13T16:43:14.605Z,101123.09
2018-09-13T16:45:38.756Z,101128.72
2018-09-13T16:48:04.184Z,101126.95
2018-09-13T16:50:28.434Z,101123.52
2018-09-13T16:52:52.317Z,101125.69
2018-09-13T16:55:16.203Z,101120.80
2018-09-13T16:57:40.090Z,101123.27
2018-09-13T17:00:04.045Z,101118.76
2018-09-13T17:02:28.063Z,101127.98
2018-09-13T17:04:51.962Z,101130.95
2018-09-13T17:07:15.839Z,101123.77
2018-09-13T17:09:39.939Z,101133.30
2018-09-13T17:12:03.830Z,101130.86
2018-09-13T17:14:27.757Z,101128.98
2018-09-13T17:16:51.843Z,101125.63
2018-09-13T17:19:15.799Z,101125.28
2018-09-13T17:21:39.677Z,101125.41
2018-09-13T17:24:04.176Z,101128.17
2018-09-13T17:26:28.080Z,101129.54
2018-09-13T17:28:51.944Z,101133.98
2018-09-13T17:31:15.886Z,101134.30
2018-09-13T17:33:39.780Z,101135.54
2018-09-13T17:36:03.785Z,101136.49
2018-09-13T17:38:27.689Z,101139.63
2018-09-13T17:40:51.552Z,101129.61
2018-09-13T17:43:15.464Z,101140.06
2018-09-13T17:45:39.390Z,101142.25
2018-09-13T17:48:03.355Z,101141.94
2018-09-13T17:50:27.231Z,101142.86
2018-09-13T17:52:51.138Z,101131.45
2018-09-13T17:55:15.657Z,101133.53
2018-09-13T17:57:39.539Z,101140.98
2018-09-13T18:00:03.586Z,101140.22
2018-09-13T18:02:29.963Z,101147.55
2018-09-13T18:04:53.870Z,101150.52
2018-09-13T18:07:17.849Z,101150.36
2018-09-13T18:09:41.808Z,101151.45
2018-09-13T18:12:05.656Z,101155.04
2018-09-13T18:14:29.593Z,101157.70
2018-09-13T18:16:53.469Z,101161.61
2018-09-13T18:19:17.390Z,101160.36
2018-09-13T18:21:41.309Z,101164.56
2018-09-13T18:24:05.212Z,101162.09
2018-09-13T18:26:29.124Z,101158.02
2018-09-13T18:28:53.007Z,101162.08
2018-09-13T18:31:16.961Z,101167.69
2018-09-13T18:33:40.893Z,101169.41
2018-09-13T18:36:04.820Z,101179.99
2018-09-13T18:38:28.763Z,101177.36
2018-09-13T18:40:52.703Z,101179.69
2018-09-13T18:43:16.982Z,101179.86
2018-09-13T18:45:41.038Z,101175.64
2018-09-13T18:48:05.015Z,101182.19
2018-09-13T18:50:29.157Z,101180.78
2018-09-13T18:52:53.225Z,101172.97
2018-09-13T18:55:17.259Z,101170.02
2018-09-13T18:58:14.556Z,101174.09
2018-09-13T19:00:38.715Z,101171.75
2018-09-13T19:03:02.759Z,101170.20
2018-09-13T19:05:28.439Z,101168.45
2018-09-13T19:07:52.575Z,101169.45
2018-09-13T19:10:16.469Z,101169.05
2018-09-13T19:12:40.444Z,101179.72
2018-09-13T19:15:04.440Z,101175.31
2018-09-13T19:17:29.104Z,101177.95
2018-09-13T19:19:53.158Z,101182.56
2018-09-13T19:22:17.251Z,101180.17
2018-09-13T19:24:41.229Z,101177.05
2018-09-13T19:27:05.525Z,101181.27
2018-09-13T19:29:29.545Z,101174.41
2018-09-13T19:31:53.542Z,101176.26
2018-09-13T19:34:17.531Z,101182.35
2018-09-13T19:36:41.618Z,101181.54
2018-09-13T19:39:08.883Z,101183.72
2018-09-13T19:41:33.267Z,101176.28
2018-09-13T19:43:57.211Z,101192.18
2018-09-13T19:46:21.222Z,101186.56
2018-09-13T19:48:45.226Z,101181.88
2018-09-13T19:51:09.139Z,101190.61
2018-09-13T19:53:33.103Z,101182.80
2018-09-13T19:55:57.070Z,101185.61
2018-09-13T19:58:21.504Z,101188.89
2018-09-13T20:00:45.445Z,101185.95
2018-09-13T20:03:09.482Z,101191.50
2018-09-13T20:05:33.696Z,101191.53
2018-09-13T20:07:57.586Z,101195.40
2018-09-13T20:10:21.992Z,101191.67
2018-09-13T20:12:45.934Z,101198.55
2018-09-13T20:15:09.813Z,101196.62
2018-09-13T20:17:33.824Z,101199.76
2018-09-13T20:19:57.696Z,101199.27
2018-09-13T20:22:21.599Z,101196.84
2018-09-13T20:24:46.177Z,101204.41
2018-09-13T20:27:09.999Z,101198.38
2018-09-13T20:29:34.001Z,101201.17
2018-09-13T20:31:57.865Z,101201.12
2018-09-13T20:34:21.748Z,101201.01
2018-09-13T20:36:45.633Z,101198.24
2018-09-13T20:39:10.899Z,101193.89
2018-09-13T20:41:34.812Z,101199.42
2018-09-13T20:43:58.697Z,101202.89
2018-09-13T20:46:22.572Z,101200.09
2018-09-13T20:48:46.524Z,101197.47
2018-09-13T20:51:10.397Z,101202.25
2018-09-13T20:53:34.520Z,101200.60
2018-09-13T20:55:58.360Z,101201.89
2018-09-13T20:58:22.254Z,101199.89
2018-09-13T21:00:46.290Z,101201.61
2018-09-13T21:03:10.044Z,101197.20
2018-09-13T21:05:34.009Z,101197.50
2018-09-13T21:07:57.939Z,101204.55
2018-09-13T21:10:21.801Z,101157.05
2018-09-13T21:12:45.776Z,101204.38
2018-09-13T21:15:10.050Z,101203.44
2018-09-13T21:17:33.921Z,101199.97
2018-09-13T21:19:57.783Z,101196.00
2018-09-13T21:22:21.644Z,101198.64
2018-09-13T21:24:45.639Z,101196.68
2018-09-13T21:27:09.550Z,101194.25
2018-09-13T21:29:33.422Z,101198.97
2018-09-13T21:31:57.307Z,101195.97
2018-09-13T21:34:22.076Z,101198.81
2018-09-13T21:36:46.050Z,101195.78
2018-09-13T21:39:10.650Z,101193.02
2018-09-13T21:41:34.485Z,101189.07
2018-09-13T21:43:58.362Z,101194.25
2018-09-13T21:46:22.210Z,101194.25
2018-09-13T21:48:46.199Z,101194.47
2018-09-13T21:51:10.043Z,101195.58
2018-09-13T21:53:33.883Z,101199.34
2018-09-13T21:55:57.735Z,101197.53
2018-09-13T21:58:21.567Z,101194.69
2018-09-13T22:00:45.548Z,101193.91
2018-09-13T22:03:09.405Z,101185.34
2018-09-13T22:05:33.276Z,101195.03
2018-09-13T22:07:57.169Z,101185.38
2018-09-13T22:10:20.973Z,101194.83
2018-09-13T22:12:44.967Z,101193.51
2018-09-13T22:15:08.818Z,101198.24
2018-09-13T22:17:32.639Z,101200.66
2018-09-13T22:19:56.537Z,101194.68
2018-09-13T22:22:20.386Z,101201.45
2018-09-13T22:24:44.356Z,101196.61
2018-09-13T22:27:08.218Z,101197.72
2018-09-13T22:29:32.062Z,101199.50
2018-09-13T22:31:55.976Z,101213.03
2018-09-13T22:34:19.776Z,101207.87
2018-09-13T22:36:43.616Z,101211.50
2018-09-13T22:39:09.404Z,101210.11
2018-09-13T22:41:33.359Z,101210.52
2018-09-13T22:43:57.195Z,101215.13
2018-09-13T22:46:22.712Z,101217.42
2018-09-13T22:48:46.654Z,101210.18
2018-09-13T22:51:10.497Z,101212.98
2018-09-13T22:53:34.371Z,101214.02
2018-09-13T22:55:58.227Z,101215.55
2018-09-13T22:58:22.052Z,101213.91
2018-09-13T23:00:45.898Z,101209.32
2018-09-13T23:03:09.772Z,101214.23
2018-09-13T23:05:33.621Z,101215.84
2018-09-13T23:07:57.722Z,101211.83
2018-09-13T23:10:21.553Z,101210.03
2018-09-13T23:12:45.631Z,101213.16
2018-09-13T23:15:09.445Z,101215.55
2018-09-13T23:17:33.370Z,101215.52
2018-09-13T23:19:57.213Z,101215.93
2018-09-13T23:22:21.048Z,101209.92
2018-09-13T23:24:44.972Z,101213.28
2018-09-13T23:27:09.779Z,101213.41
2018-09-13T23:29:33.591Z,101208.39
2018-09-13T23:31:57.431Z,101213.20
2018-09-13T23:34:21.276Z,101206.89
2018-09-13T23:36:45.223Z,101209.56
2018-09-13T23:39:09.736Z,101215.02
2018-09-13T23:41:33.555Z,101214.41
2018-09-13T23:43:57.425Z,101215.90
2018-09-13T23:46:21.306Z,101212.77
2018-09-13T23:48:45.205Z,101215.38
2018-09-13T23:51:09.164Z,101211.94
2018-09-13T23:53:32.990Z,101215.00
2018-09-13T23:55:56.856Z,101220.55
2018-09-13T23:58:20.690Z,101215.84
